Lilac (350, 352) Station Data

Red Flag Warning: No
Fire Weather Zone: 250
SDGE Region: North East
Lat/Lon: 33.277/-117.069

Observations

Time Wind Speed/Gust Temp(F) RH Fuel Moist Fuel Temp(F) Dewpt(F) Tmax(F) Tmin(F) Accum Precip 10-min Precip SL Press(mb)
6/27 5:00pm 299 7 G 10 85° 24% - - 45° 94.6° 77.1° - - -
6/27 4:50pm 298 8 G 12 86° 23% - - 44° 94.6° 77.1° - - -
6/27 4:40pm 284 8 G 13 86° 22% - - 43° 94.6° 77.1° - - -
6/27 4:30pm 288 9 G 14 86° 21% - - 41° 94.6° 77.1° - - -
6/27 4:20pm 293 9 G 12 87° 19% - - 40° 94.6° 77.1° - - -
6/27 4:10pm 295 9 G 13 87° 19% - - 40° 94.6° 77.1° - - -
6/27 4:00pm 305 9 G 13 87° 18% - - 39° 94.6° 77.1° - - -
6/27 3:50pm 297 8 G 13 88° 18% - - 39° 94.6° 77.1° - - -
6/27 3:40pm 276 9 G 14 89° 17% - - 38° 94.6° 77.1° - - -
6/27 3:30pm 267 8 G 13 90° 15% - - 36° 94.6° 77.1° - - -
6/27 3:20pm 266 9 G 14 89° 17% - - 39° 94.6° 77.1° - - -
6/27 3:10pm 269 9 G 16 90° 16% - - 38° 94.6° 77.1° - - -
6/27 3:00pm 271 8 G 14 90° 14% - - 35° 94.6° 77.1° - - -
6/27 2:50pm 270 10 G 14 90° 13% - - 32° 94.6° 77.1° - - -
6/27 2:40pm 271 11 G 15 90° 13% - - 33° 94.6° 77.1° - - -
6/27 2:30pm 268 10 G 13 90° 13% - - 34° 94.6° 77.1° - - -
6/27 2:20pm 255 9 G 14 91° 13% - - 33° 94.6° 77.1° - - -
6/27 2:10pm 259 9 G 14 92° 13% - - 33° 94.6° 77.1° - - -
6/27 2:00pm 263 10 G 14 92° 11% - - 30° 94.6° 77.1° - - -
6/27 1:50pm 266 8 G 13 92° 10% - - 28° 94.6° 77.1° - - -
6/27 1:40pm 263 9 G 15 93° 10% - - 28° 94.6° 77.1° - - -
6/27 1:30pm 254 8 G 13 92° 10% - - 27° 93.4° 77.1° - - -
6/27 1:20pm 270 9 G 13 92° 12% - - 31° 93.4° 77.1° - - -
6/27 1:10pm 267 9 G 13 92° 14% - - 35° 93.4° 77.1° - - -
6/27 1:00pm 271 10 G 14 91° 13% - - 34° 93.4° 77.1° - - -
6/27 12:50pm 262 8 G 13 92° 10% - - 26° 93.4° 77.1° - - -
6/27 12:40pm 261 7 G 12 92° 10% - - 28° 93.4° 77.1° - - -
6/27 12:30pm 253 7 G 10 92° 8% - - 22° 93.4° 77.1° - - -
6/27 12:20pm 270 7 G 11 92° 10% - - 27° 93.4° 77.1° - - -
6/27 12:10pm 254 7 G 10 92° 10% - - 28° 93° 77.1° - - -
6/27 12:00pm 248 7 G 11 92° 9% - - 26° 93° 77.1° - - -
6/27 11:50am 275 7 G 13 92° 9% - - 25° 93° 77.1° - - -
6/27 11:40am 255 5 G 12 92° 8% - - 22° 93° 77.1° - - -
6/27 11:30am 262 5 G 10 92° 9% - - 26° 92.6° 77.1° - - -
6/27 11:20am 265 5 G 9 92° 10% - - 27° 92.6° 77.1° - - -
6/27 11:10am 266 5 G 10 90° 12% - - 30° 91.2° 77.1° - - -
6/27 11:00am 275 6 G 10 90° 12% - - 29° 90.6° 77.1° - - -
6/27 10:50am 290 5 G 9 89° 11% - - 29° 89.8° 77.1° - - -
6/27 10:40am 284 4 G 8 89° 12% - - 29° 89.2° 77.1° - - -
6/27 10:30am 290 5 G 8 88° 12% - - 28° 88.3° 77.1° - - -
6/27 10:20am 287 5 G 8 87° 11% - - 27° 88° 77.1° - - -
6/27 10:10am 306 5 G 8 87° 11% - - 27° 87° 77.1° - - -
6/27 10:00am 305 5 G 8 86° 12% - - 27° 86.8° 77.1° - - -
6/27 9:50am 296 5 G 8 86° 11% - - 26° 86.5° 77.1° - - -
6/27 9:40am 285 4 G 9 86° 11% - - 25° 86.3° 77.1° - - -
6/27 9:30am 302 4 G 8 86° 11% - - 24° 86.3° 77.1° - - -
6/27 9:20am 290 3 G 5 86° 10% - - 23° 86.3° 77.1° - - -
6/27 9:10am 288 4 G 6 85° 9% - - 21° 86.3° 77.1° - - -
6/27 9:00am 292 3 G 6 85° 8% - - 19° 86.3° 77.1° - - -
6/27 8:50am 270 3 G 4 85° 9% - - 20° 86.3° 77.1° - - -
6/27 8:40am 300 2 G 4 85° 10% - - 22° 86.3° 77.1° - - -
6/27 8:30am 285 2 G 3 86° 9% - - 20° 86.3° 77.1° - - -
6/27 8:20am 218 1 G 2 85° 8% - - 16° 86.2° 77.1° - - -
6/27 8:10am 268 1 G 3 86° 7% - - 15° 86.2° 77.1° - - -
6/27 8:00am 158 2 G 3 85° 8% - - 18° 85.9° 77.1° - - -
6/27 7:50am 152 2 G 2 85° 9% - - 19° 85.7° 77.1° - - -
6/27 7:40am 158 2 G 3 85° 9% - - 18° 85.2° 77.1° - - -
6/27 7:30am 142 2 G 2 84° 9% - - 18° 84.3° 77.1° - - -
6/27 7:20am 138 2 G 3 83° 8% - - 16° 83.6° 77.1° - - -
6/27 7:10am 153 2 G 3 83° 8% - - 16° 83.6° 77.1° - - -
6/27 7:00am 145 3 G 4 82° 8% - - 16° 83.1° 77.1° - - -
6/27 6:50am 143 3 G 4 82° 9% - - 16° 83.1° 77.1° - - -
6/27 6:40am 143 2 G 3 82° 9% - - 17° 83.1° 77.1° - - -
6/27 6:30am 152 3 G 3 82° 9% - - 18° 83.1° 77.1° - - -
6/27 6:20am 153 3 G 3 81° 10% - - 18° 83.1° 77.1° - - -
6/27 6:10am 155 3 G 4 81° 10% - - 18° 83.1° 77.1° - - -
6/27 6:00am 157 3 G 4 81° 10% - - 19° 83.1° 77.1° - - -
6/27 5:50am 148 3 G 4 82° 9% - - 18° 83.1° 77.1° - - -
6/27 5:40am 137 4 G 5 82° 10% - - 19° 83.1° 77.1° - - -
6/27 5:30am 136 4 G 4 82° 10% - - 20° 83.1° 77.1° - - -
6/27 5:20am 136 3 G 4 82° 10% - - 20° 83.1° 77.1° - - -
6/27 5:10am 126 3 G 4 82° 10% - - 20° 83.1° 77.1° - - -
6/27 5:00am 131 3 G 4 82° 10% - - 20° 83.1° 77.1° - - -
6/27 4:50am 143 2 G 3 82° 10% - - 20° 83.1° 77.1° - - -
6/27 4:40am 140 3 G 3 80° 11% - - 21° 83.1° 77.1° - - -
6/27 4:30am 147 3 G 4 80° 11% - - 21° 83.1° 77.1° - - -
6/27 4:20am 172 1 G 3 80° 11% - - 21° 83.1° 77.1° - - -
6/27 4:10am 56 1 G 2 79° 12% - - 22° 83.1° 77.1° - - -
6/27 4:00am 146 1 G 2 79° 12% - - 22° 83.1° 77.1° - - -
6/27 3:50am 159 1 G 2 79° 12% - - 22° 83.1° 77.1° - - -
6/27 3:40am 299 1 G 3 79° 13% - - 23° 83.1° 77.1° - - -
6/27 3:30am 359 1 G 2 79° 13% - - 23° 83.1° 77.1° - - -
6/27 3:20am 264 1 G 3 79° 13% - - 24° 83.1° 77.1° - - -
6/27 3:10am 120 3 G 7 81° 12% - - 23° 83.1° 77.1° - - -
6/27 3:00am 119 7 G 8 81° 11% - - 22° 83.1° 77.1° - - -
6/27 2:50am 118 8 G 9 81° 12% - - 23° 83.1° 77.1° - - -
6/27 2:40am 124 7 G 8 81° 12% - - 23° 83.1° 77.1° - - -
6/27 2:30am 123 7 G 8 82° 11% - - 23° 83.1° 77.1° - - -
6/27 2:20am 122 8 G 9 82° 11% - - 23° 83.1° 77.1° - - -
6/27 2:10am 123 7 G 8 81° 13% - - 25° 83.1° 77.1° - - -
6/27 2:00am 127 7 G 8 81° 13% - - 25° 83.1° 77.1° - - -
6/27 1:50am 112 6 G 7 83° 12% - - 25° 83.1° 77.1° - - -
6/27 1:40am 94 6 G 6 82° 12% - - 25° 83.1° 77.1° - - -
6/27 1:30am 98 5 G 6 80° 14% - - 26° 81.2° 77.1° - - -
6/27 1:20am 88 3 G 5 80° 14% - - 27° 81.1° 77.1° - - -
6/27 1:10am 139 2 G 5 80° 14% - - 27° 81.1° 77.1° - - -
6/27 1:00am 133 6 G 7 81° 14% - - 27° 81.1° 77.1° - - -
6/27 12:50am 108 5 G 6 80° 15% - - 28° 80.7° 77.1° - - -
6/27 12:40am 118 3 G 4 80° 16% - - 29° 80.4° 77.1° - - -
6/27 12:30am 126 6 G 8 80° 16% - - 30° 80.1° 77.1° - - -
6/27 12:20am 120 6 G 8 79° 18% - - 32° 79.8° 77.1° - - -
6/27 12:10am 117 3 G 5 78° 21% - - 34° 79.3° 77.1° - - -
6/27 12:00am 113 6 G 8 80° 18% - - 33° 95.4° 75.7° - - -
6/26 11:50pm 118 7 G 8 81° 17% - - 32° 95.4° 75.7° - - -
6/26 11:40pm 115 7 G 8 80° 20% - - 35° 95.4° 75.7° - - -
6/26 11:30pm 115 7 G 8 81° 20% - - 36° 95.4° 75.7° - - -
6/26 11:20pm 112 7 G 9 79° 22% - - 37° 95.4° 75.7° - - -
6/26 11:10pm 110 8 G 10 78° 24% - - 38° 95.4° 75.7° - - -
6/26 11:00pm 110 7 G 10 78° 24% - - 38° 95.4° 75.7° - - -
6/26 10:50pm 114 8 G 10 78° 23% - - 37° 95.4° 75.7° - - -
6/26 10:40pm 138 5 G 7 80° 22% - - 38° 95.4° 75.7° - - -
6/26 10:30pm 154 4 G 6 80° 23% - - 39° 95.4° 75.7° - - -
6/26 10:20pm 161 4 G 5 80° 23% - - 39° 95.4° 75.7° - - -
6/26 10:10pm 156 4 G 4 80° 24% - - 39° 95.4° 75.7° - - -
6/26 10:00pm 160 3 G 4 80° 23% - - 39° 95.4° 75.7° - - -
6/26 9:50pm 161 3 G 3 79° 24% - - 39° 95.4° 75.7° - - -
6/26 9:40pm 177 2 G 3 80° 23% - - 39° 95.4° 75.7° - - -
6/26 9:30pm 189 2 G 3 81° 23% - - 39° 95.4° 75.7° - - -
6/26 9:20pm 195 2 G 3 81° 22% - - 39° 95.4° 75.7° - - -
6/26 9:10pm 172 2 G 2 81° 22% - - 39° 95.4° 75.7° - - -
6/26 9:00pm 158 3 G 4 81° 22% - - 39° 95.4° 75.7° - - -
6/26 8:50pm 173 3 G 4 82° 22% - - 38° 95.4° 75.7° - - -
6/26 8:40pm 173 3 G 4 82° 21% - - 38° 95.4° 75.7° - - -
6/26 8:30pm 164 3 G 4 83° 19% - - 37° 95.4° 75.7° - - -
6/26 8:20pm 193 2 G 4 84° 19% - - 37° 95.4° 75.7° - - -
6/26 8:10pm 209 3 G 5 85° 17% - - 36° 95.4° 75.7° - - -
6/26 8:00pm 221 2 G 4 86° 15% - - 33° 95.4° 75.7° - - -
6/26 7:50pm 236 2 G 4 86° 15% - - 32° 95.4° 75.7° - - -
6/26 7:40pm 263 2 G 4 87° 15% - - 33° 95.4° 75.7° - - -
6/26 7:30pm 279 3 G 5 87° 18% - - 39° 95.4° 75.7° - - -
6/26 7:20pm 299 3 G 4 88° 18% - - 40° 95.4° 75.7° - - -
6/26 7:10pm 289 3 G 5 89° 16% - - 38° 95.4° 75.7° - - -
6/26 7:00pm 308 3 G 5 90° 15% - - 36° 95.4° 75.7° - - -
6/26 6:50pm 328 3 G 5 91° 14% - - 34° 95.4° 75.7° - - -
6/26 6:40pm 279 4 G 6 91° 12% - - 31° 95.4° 75.7° - - -
6/26 6:30pm 289 4 G 8 91° 12% - - 32° 95.4° 75.7° - - -
6/26 6:20pm 296 5 G 10 90° 13% - - 33° 95.4° 75.7° - - -
6/26 6:10pm 292 6 G 10 92° 12% - - 32° 95.4° 75.7° - - -
6/26 6:00pm 293 6 G 7 92° 11% - - 31° 95.4° 75.7° - - -
6/26 5:50pm 292 6 G 8 93° 11% - - 30° 95.4° 75.7° - - -
6/26 5:40pm 266 7 G 10 93° 11% - - 31° 95.4° 75.7° - - -
6/26 5:30pm 270 6 G 9 93° 10% - - 28° 95.4° 75.7° - - -
6/26 5:20pm 267 7 G 11 93° 10% - - 28° 95.4° 75.7° - - -
6/26 5:10pm 268 7 G 11 93° 9% - - 27° 95.4° 75.7° - - -
6/26 5:00pm 259 7 G 10 94° 10% - - 28° 95.4° 75.7° - - -
6/26 4:50pm 253 7 G 10 94° 10% - - 29° 95.4° 75.7° - - -
6/26 4:40pm 269 7 G 11 94° 10% - - 29° 95.4° 75.7° - - -
6/26 4:30pm 248 7 G 11 94° 10% - - 30° 95.4° 75.7° - - -
6/26 4:20pm 274 7 G 11 94° 12% - - 33° 95.4° 75.7° - - -
6/26 4:10pm 269 7 G 11 94° 12% - - 34° 95.4° 75.7° - - -
6/26 4:00pm 271 8 G 13 94° 13% - - 36° 95.4° 75.7° - - -
6/26 3:50pm 253 8 G 13 94° 14% - - 37° 95.4° 75.7° - - -
6/26 3:40pm 279 7 G 11 94° 13% - - 35° 95.4° 75.7° - - -
6/26 3:30pm 278 7 G 11 94° 14% - - 37° 95.4° 75.7° - - -
6/26 3:20pm 267 7 G 12 94° 13% - - 36° 95.4° 75.7° - - -
6/26 3:10pm 275 7 G 12 93° 14% - - 37° 95.4° 75.7° - - -
6/26 3:00pm 272 8 G 12 94° 15% - - 38° 95.4° 75.7° - - -
6/26 2:50pm 278 7 G 11 94° 17% - - 41° 95.4° 75.7° - - -
6/26 2:40pm 285 7 G 11 94° 18% - - 43° 95.4° 75.7° - - -
6/26 2:30pm 284 8 G 12 94° 16% - - 41° 95.4° 75.7° - - -
6/26 2:20pm 282 8 G 12 94° 17% - - 42° 95.4° 75.7° - - -
6/26 2:10pm 282 8 G 13 93° 18% - - 43° 95.4° 75.7° - - -
6/26 2:00pm 284 7 G 13 94° 17% - - 42° 95.4° 75.7° - - -
6/26 1:50pm 284 8 G 11 94° 17% - - 42° 95.4° 75.7° - - -
6/26 1:40pm 292 7 G 11 93° 17% - - 42° 95.4° 75.7° - - -
6/26 1:30pm 294 7 G 11 94° 17% - - 42° 95.4° 75.7° - - -
6/26 1:20pm 278 8 G 12 94° 17% - - 42° 95.4° 75.7° - - -
6/26 1:10pm 258 8 G 13 94° 15% - - 38° 95.4° 75.7° - - -
6/26 1:00pm 267 8 G 12 94° 17% - - 42° 95.4° 75.7° - - -
6/26 12:50pm 279 8 G 11 94° 17% - - 42° 95.4° 75.7° - - -
6/26 12:40pm 274 8 G 12 93° 18% - - 43° 95.4° 75.7° - - -
6/26 12:30pm 286 7 G 11 93° 20% - - 47° 95.4° 75.7° - - -
6/26 12:20pm 282 8 G 12 94° 17% - - 43° 95.4° 75.7° - - -
6/26 12:10pm 285 7 G 11 94° 16% - - 41° 95.4° 75.7° - - -
6/26 12:00pm 276 7 G 11 94° 18% - - 44° 95.4° 75.7° - - -
6/26 11:50am 284 7 G 11 93° 21% - - 47° 95.4° 75.7° - - -
6/26 11:40am 284 7 G 10 92° 24% - - 50° 95.4° 75.7° - - -
6/26 11:30am 279 8 G 12 92° 23% - - 50° 95.4° 75.7° - - -
6/26 11:20am 283 7 G 12 93° 22% - - 49° 95.4° 75.7° - - -
6/26 11:10am 279 9 G 12 93° 20% - - 46° 95.4° 75.7° - - -
6/26 11:00am 308 7 G 10 94° 19% - - 46° 95.4° 75.7° - - -
6/26 10:50am 299 6 G 11 94° 17% - - 43° 95.4° 75.7° - - -
6/26 10:40am 301 6 G 8 94° 15% - - 40° 94.8° 75.7° - - -
6/26 10:30am 297 6 G 9 94° 15% - - 40° 94.8° 75.7° - - -
6/26 10:20am 299 5 G 8 94° 15% - - 39° 94.6° 75.7° - - -
6/26 10:10am 277 4 G 7 93° 16% - - 40° 93.6° 75.7° - - -
6/26 10:00am 292 4 G 7 93° 16% - - 39° 93.3° 75.7° - - -
6/26 9:50am 276 3 G 5 92° 15% - - 38° 92.5° 75.7° - - -
6/26 9:40am 274 3 G 5 92° 15% - - 38° 91.9° 75.7° - - -
6/26 9:30am 291 2 G 4 91° 16% - - 39° 91.7° 75.7° - - -
6/26 9:20am 292 2 G 4 91° 15% - - 37° 91.3° 75.7° - - -
6/26 9:10am 284 2 G 4 90° 15% - - 37° 90.7° 75.7° - - -
6/26 9:00am 292 2 G 4 89° 16% - - 38° 90.4° 75.7° - - -
6/26 8:50am 285 2 G 3 89° 17% - - 38° 90.4° 75.7° - - -
6/26 8:40am 276 1 G 3 89° 17% - - 38° 90.4° 75.7° - - -
6/26 8:30am 285 1 G 3 88° 18% - - 39° 90.4° 75.7° - - -
6/26 8:20am 286 1 G 3 89° 17% - - 38° 90.4° 75.7° - - -
6/26 8:10am 220 1 G 2 90° 16% - - 37° 90.4° 75.7° - - -
6/26 8:00am 154 2 G 3 89° 16% - - 37° 89.5° 75.7° - - -
6/26 7:50am 191 1 G 2 87° 16% - - 34° 87.6° 75.7° - - -
6/26 7:40am 273 1 G 2 86° 15% - - 33° 87.4° 75.7° - - -
6/26 7:30am 66 2 G 3 87° 14% - - 33° 87.4° 75.7° - - -
6/26 7:20am 25 1 G 6 85° 14% - - 32° 85.9° 75.7° - - -
6/26 7:10am 104 5 G 6 85° 14% - - 30° 85.4° 75.7° - - -
6/26 7:00am 105 6 G 6 85° 13% - - 29° 85.4° 75.7° - - -
6/26 6:50am 105 6 G 7 84° 13% - - 29° 84.9° 75.7° - - -
6/26 6:40am 104 5 G 6 84° 14% - - 29° 84.9° 75.7° - - -
6/26 6:30am 92 5 G 6 85° 13% - - 29° 84.9° 75.7° - - -
6/26 6:20am 66 5 G 6 84° 14% - - 29° 84.7° 75.7° - - -
6/26 6:10am 76 4 G 5 84° 14% - - 29° 84.5° 75.7° - - -
6/26 6:00am 80 3 G 4 83° 14% - - 29° 84.2° 75.7° - - -